CPA705 VHHH-VTBS
Flight info
| Callsign | CPA705 |
|---|---|
| Flight time | 2h 13m |
| Altitude | 36000 |
| Route | N0492F360 PECAN V10 SIKOU/K0911S1100 A202 ASSAD/K0909F360 A202 VILAO/N0491F360 A202 RAMEI W42 PAKRI Y13 RUKSA |
| Aircraft | B77W/H-SDE3GHIJ2J3J4J7M3P2RWXYZ/LB1D1 |
Departure
| Time | 2026-05-07 06:31 |
|---|---|
| Airport | Hong Kong International Airport (VHHH) |
Arrival
| Time | 2026-05-07 08:44 |
|---|---|
| Airport | Suvarnabhumi Airport (VTBS) |
| Time | Latitude | Longitude | Altitude | Speed | Heading |
|---|---|---|---|---|---|
| 2026-05-07 05:37 | 22.31690 | 113.93295 | 40 ft | 0 kts | 71° |
| 2026-05-07 05:43 | 22.31692 | 113.93300 | 40 ft | 0 kts | 71° |
| 2026-05-07 06:17 | 22.31684 | 113.93276 | 40 ft | 4 kts | 71° |
| 2026-05-07 06:17 | 22.31676 | 113.93248 | 39 ft | 4 kts | 71° |
| 2026-05-07 06:17 | 22.31668 | 113.93225 | 37 ft | 4 kts | 81° |
| 2026-05-07 06:17 | 22.31670 | 113.93199 | 38 ft | 4 kts | 125° |
| 2026-05-07 06:18 | 22.31689 | 113.93183 | 36 ft | 4 kts | 163° |
| 2026-05-07 06:18 | 22.31712 | 113.93176 | 38 ft | 1 kts | 161° |
| 2026-05-07 06:18 | 22.31713 | 113.93176 | 38 ft | 0 kts | 160° |
| 2026-05-07 06:21 | 22.31676 | 113.93186 | 37 ft | 14 kts | 174° |
| 2026-05-07 06:21 | 22.31599 | 113.93124 | 40 ft | 15 kts | 245° |
| 2026-05-07 06:22 | 22.31563 | 113.93019 | 40 ft | 15 kts | 251° |
| 2026-05-07 06:22 | 22.31688 | 113.92885 | 39 ft | 15 kts | 341° |
| 2026-05-07 06:22 | 22.31782 | 113.92843 | 40 ft | 12 kts | 313° |
| 2026-05-07 06:23 | 22.31773 | 113.92756 | 39 ft | 12 kts | 252° |
| 2026-05-07 06:23 | 22.31742 | 113.92666 | 40 ft | 16 kts | 250° |
| 2026-05-07 06:23 | 22.31691 | 113.92506 | 40 ft | 25 kts | 251° |
| 2026-05-07 06:23 | 22.31634 | 113.92331 | 40 ft | 25 kts | 251° |
| 2026-05-07 06:24 | 22.31578 | 113.92157 | 40 ft | 25 kts | 251° |
| 2026-05-07 06:24 | 22.31522 | 113.91983 | 40 ft | 25 kts | 251° |
| 2026-05-07 06:24 | 22.31483 | 113.91888 | 40 ft | 10 kts | 222° |
| 2026-05-07 06:24 | 22.31375 | 113.91911 | 40 ft | 25 kts | 160° |
| 2026-05-07 06:25 | 22.31190 | 113.91981 | 40 ft | 28 kts | 161° |
| 2026-05-07 06:25 | 22.31005 | 113.92051 | 40 ft | 28 kts | 160° |
| 2026-05-07 06:25 | 22.30837 | 113.92115 | 40 ft | 14 kts | 161° |
| 2026-05-07 06:25 | 22.30743 | 113.92149 | 40 ft | 14 kts | 160° |
| 2026-05-07 06:26 | 22.30656 | 113.92135 | 40 ft | 14 kts | 239° |
| 2026-05-07 06:26 | 22.30611 | 113.92031 | 40 ft | 19 kts | 228° |
| 2026-05-07 06:26 | 22.30494 | 113.91912 | 40 ft | 25 kts | 234° |
| 2026-05-07 06:26 | 22.30430 | 113.91735 | 40 ft | 25 kts | 251° |
| 2026-05-07 06:27 | 22.30373 | 113.91555 | 40 ft | 25 kts | 251° |
| 2026-05-07 06:27 | 22.30315 | 113.91376 | 40 ft | 25 kts | 251° |
| 2026-05-07 06:27 | 22.30257 | 113.91196 | 40 ft | 25 kts | 250° |
| 2026-05-07 06:27 | 22.30199 | 113.91017 | 40 ft | 25 kts | 251° |
| 2026-05-07 06:28 | 22.30142 | 113.90837 | 40 ft | 25 kts | 251° |
| 2026-05-07 06:28 | 22.30084 | 113.90658 | 40 ft | 25 kts | 251° |
| 2026-05-07 06:28 | 22.30025 | 113.90479 | 40 ft | 25 kts | 251° |
| 2026-05-07 06:28 | 22.29967 | 113.90300 | 40 ft | 25 kts | 251° |
| 2026-05-07 06:29 | 22.29910 | 113.90121 | 40 ft | 25 kts | 251° |
| 2026-05-07 06:29 | 22.29853 | 113.89941 | 40 ft | 25 kts | 251° |
| 2026-05-07 06:29 | 22.29808 | 113.89803 | 40 ft | 16 kts | 249° |
| 2026-05-07 06:29 | 22.29716 | 113.89775 | 40 ft | 16 kts | 163° |
| 2026-05-07 06:30 | 22.29631 | 113.89819 | 40 ft | 10 kts | 119° |
| 2026-05-07 06:30 | 22.29647 | 113.89893 | 40 ft | 11 kts | 71° |
| 2026-05-07 06:30 | 22.29725 | 113.90135 | 40 ft | 69 kts | 70° |
| 2026-05-07 06:30 | 22.29975 | 113.90892 | 40 ft | 142 kts | 71° |
| 2026-05-07 06:31 | 22.30351 | 113.92090 | 203 ft | 182 kts | 71° |
| 2026-05-07 06:31 | 22.30757 | 113.93376 | 960 ft | 181 kts | 71° |
| 2026-05-07 06:31 | 22.31191 | 113.94711 | 1497 ft | 199 kts | 75° |
| 2026-05-07 06:31 | 22.31663 | 113.96171 | 1936 ft | 215 kts | 73° |
| 2026-05-07 06:32 | 22.32164 | 113.97718 | 2657 ft | 219 kts | 72° |
| 2026-05-07 06:32 | 22.32673 | 113.99289 | 3289 ft | 225 kts | 71° |
| 2026-05-07 06:32 | 22.33193 | 114.00900 | 3948 ft | 229 kts | 71° |
| 2026-05-07 06:32 | 22.33705 | 114.02548 | 4591 ft | 233 kts | 76° |
| 2026-05-07 06:33 | 22.33823 | 114.04304 | 5192 ft | 238 kts | 98° |
| 2026-05-07 06:33 | 22.33332 | 114.06008 | 5842 ft | 240 kts | 121° |
| 2026-05-07 06:33 | 22.32287 | 114.07418 | 6420 ft | 245 kts | 141° |
| 2026-05-07 06:33 | 22.30798 | 114.08386 | 6807 ft | 255 kts | 163° |
| 2026-05-07 06:34 | 22.29055 | 114.08774 | 7388 ft | 257 kts | 180° |
| 2026-05-07 06:34 | 22.27243 | 114.08721 | 7838 ft | 270 kts | 184° |
| 2026-05-07 06:34 | 22.25325 | 114.08688 | 8382 ft | 281 kts | 183° |
| 2026-05-07 06:34 | 22.23341 | 114.08672 | 9093 ft | 287 kts | 183° |
| 2026-05-07 06:35 | 22.21340 | 114.08656 | 9902 ft | 289 kts | 183° |
| 2026-05-07 06:35 | 22.19301 | 114.08652 | 10484 ft | 300 kts | 183° |
| 2026-05-07 06:35 | 22.17117 | 114.08655 | 10670 ft | 327 kts | 182° |
| 2026-05-07 06:35 | 22.14749 | 114.08662 | 10862 ft | 353 kts | 182° |
| 2026-05-07 06:36 | 22.12215 | 114.08671 | 11184 ft | 373 kts | 182° |
| 2026-05-07 06:36 | 22.09581 | 114.08683 | 11815 ft | 384 kts | 182° |
| 2026-05-07 06:36 | 22.06888 | 114.08695 | 12619 ft | 390 kts | 182° |
| 2026-05-07 06:36 | 22.04159 | 114.08708 | 13496 ft | 395 kts | 182° |
| 2026-05-07 06:37 | 22.01395 | 114.08719 | 14264 ft | 400 kts | 182° |
| 2026-05-07 06:37 | 21.98592 | 114.08730 | 15026 ft | 405 kts | 182° |
| 2026-05-07 06:37 | 21.95764 | 114.08740 | 15785 ft | 409 kts | 182° |
| 2026-05-07 06:37 | 21.92907 | 114.08749 | 16542 ft | 413 kts | 182° |
| 2026-05-07 06:38 | 21.90019 | 114.08759 | 17277 ft | 417 kts | 182° |
| 2026-05-07 06:38 | 21.88088 | 114.08765 | 17744 ft | 420 kts | 182° |
| 2026-05-07 06:38 | 21.85146 | 114.08774 | 18393 ft | 426 kts | 182° |
| 2026-05-07 06:38 | 21.82161 | 114.08784 | 18967 ft | 431 kts | 182° |
| 2026-05-07 06:39 | 21.79145 | 114.08794 | 19573 ft | 435 kts | 182° |
| 2026-05-07 06:39 | 21.76102 | 114.08805 | 20171 ft | 440 kts | 182° |
| 2026-05-07 06:39 | 21.73027 | 114.08815 | 20764 ft | 444 kts | 182° |
| 2026-05-07 06:39 | 21.69924 | 114.08826 | 21337 ft | 449 kts | 182° |
| 2026-05-07 06:40 | 21.66785 | 114.08817 | 21888 ft | 453 kts | 184° |
| 2026-05-07 06:40 | 21.63641 | 114.08545 | 22428 ft | 455 kts | 190° |
| 2026-05-07 06:40 | 21.60526 | 114.07905 | 22958 ft | 457 kts | 197° |
| 2026-05-07 06:40 | 21.57437 | 114.07056 | 23476 ft | 461 kts | 197° |
| 2026-05-07 06:41 | 21.54314 | 114.06201 | 23914 ft | 465 kts | 197° |
| 2026-05-07 06:41 | 21.51166 | 114.05371 | 24390 ft | 467 kts | 196° |
| 2026-05-07 06:41 | 21.48001 | 114.04535 | 24859 ft | 469 kts | 198° |
| 2026-05-07 06:41 | 21.44907 | 114.03421 | 25293 ft | 470 kts | 205° |
| 2026-05-07 06:42 | 21.41965 | 114.01987 | 25716 ft | 471 kts | 209° |
| 2026-05-07 06:42 | 21.39117 | 114.00241 | 26138 ft | 472 kts | 216° |
| 2026-05-07 06:42 | 21.36378 | 113.98286 | 26551 ft | 475 kts | 216° |
| 2026-05-07 06:42 | 21.33628 | 113.96301 | 26972 ft | 478 kts | 216° |
| 2026-05-07 06:43 | 21.30859 | 113.94311 | 27376 ft | 481 kts | 216° |
| 2026-05-07 06:43 | 21.28062 | 113.92316 | 27740 ft | 484 kts | 216° |
| 2026-05-07 06:43 | 21.25241 | 113.90318 | 28105 ft | 488 kts | 216° |
| 2026-05-07 06:43 | 21.22395 | 113.88312 | 28471 ft | 491 kts | 216° |
| 2026-05-07 06:44 | 21.19535 | 113.86298 | 28845 ft | 493 kts | 216° |
| 2026-05-07 06:44 | 21.16662 | 113.84275 | 29185 ft | 496 kts | 216° |
| 2026-05-07 06:44 | 21.13773 | 113.82241 | 29515 ft | 497 kts | 216° |
| 2026-05-07 06:44 | 21.11053 | 113.79965 | 29779 ft | 496 kts | 227° |
| 2026-05-07 06:45 | 21.08828 | 113.77158 | 30103 ft | 494 kts | 237° |
| 2026-05-07 06:45 | 21.07074 | 113.74023 | 30530 ft | 489 kts | 246° |
| 2026-05-07 06:45 | 21.05847 | 113.70653 | 30895 ft | 485 kts | 253° |
| 2026-05-07 06:45 | 21.04782 | 113.67228 | 31207 ft | 486 kts | 253° |
| 2026-05-07 06:46 | 21.03721 | 113.63793 | 31560 ft | 486 kts | 253° |
| 2026-05-07 06:46 | 21.02652 | 113.60366 | 31989 ft | 485 kts | 253° |
| 2026-05-07 06:46 | 21.01574 | 113.56958 | 32421 ft | 483 kts | 253° |
| 2026-05-07 06:46 | 21.00484 | 113.53559 | 32837 ft | 482 kts | 253° |
| 2026-05-07 06:47 | 20.99389 | 113.50169 | 33240 ft | 482 kts | 253° |
| 2026-05-07 06:47 | 20.98290 | 113.46788 | 33629 ft | 481 kts | 253° |
| 2026-05-07 06:47 | 20.97190 | 113.43412 | 34022 ft | 480 kts | 253° |
| 2026-05-07 06:47 | 20.96090 | 113.40040 | 34344 ft | 480 kts | 253° |
| 2026-05-07 06:48 | 20.94991 | 113.36671 | 34653 ft | 480 kts | 253° |
| 2026-05-07 06:48 | 20.93891 | 113.33303 | 35010 ft | 479 kts | 253° |
| 2026-05-07 06:48 | 20.92795 | 113.29946 | 35326 ft | 478 kts | 253° |
| 2026-05-07 06:48 | 20.91699 | 113.26588 | 35563 ft | 479 kts | 253° |
| 2026-05-07 06:49 | 20.90599 | 113.23220 | 35795 ft | 480 kts | 253° |
| 2026-05-07 06:49 | 20.89497 | 113.19851 | 35930 ft | 481 kts | 253° |
| 2026-05-07 06:49 | 20.87293 | 113.13118 | 36009 ft | 477 kts | 253° |
| 2026-05-07 06:50 | 20.85101 | 113.06436 | 36001 ft | 476 kts | 253° |
| 2026-05-07 06:50 | 20.82913 | 112.99772 | 36001 ft | 475 kts | 253° |
| 2026-05-07 06:51 | 20.80739 | 112.93162 | 36008 ft | 474 kts | 253° |
| 2026-05-07 06:51 | 20.78534 | 112.86466 | 36011 ft | 475 kts | 253° |
| 2026-05-07 06:52 | 20.76338 | 112.79807 | 36011 ft | 475 kts | 253° |
| 2026-05-07 06:52 | 20.74152 | 112.73187 | 36009 ft | 476 kts | 253° |
| 2026-05-07 06:53 | 20.71946 | 112.66518 | 36005 ft | 476 kts | 253° |
| 2026-05-07 06:53 | 20.69735 | 112.59846 | 36004 ft | 477 kts | 253° |
| 2026-05-07 06:54 | 20.67521 | 112.53171 | 36006 ft | 477 kts | 253° |
| 2026-05-07 06:54 | 20.65304 | 112.46497 | 36005 ft | 477 kts | 253° |
| 2026-05-07 06:55 | 20.63086 | 112.39829 | 36002 ft | 477 kts | 252° |
| 2026-05-07 06:55 | 20.60865 | 112.33164 | 36000 ft | 476 kts | 252° |
| 2026-05-07 06:56 | 20.58645 | 112.26506 | 35996 ft | 476 kts | 252° |
| 2026-05-07 06:56 | 20.56467 | 112.19848 | 35990 ft | 472 kts | 257° |
| 2026-05-07 06:57 | 20.56026 | 112.16409 | 36005 ft | 467 kts | 272° |
| 2026-05-07 06:57 | 20.56328 | 112.12970 | 36007 ft | 465 kts | 282° |
| 2026-05-07 06:57 | 20.57261 | 112.09677 | 35998 ft | 463 kts | 295° |
| 2026-05-07 06:57 | 20.58679 | 112.06595 | 36017 ft | 463 kts | 296° |
| 2026-05-07 06:58 | 20.61579 | 112.00425 | 36006 ft | 467 kts | 296° |
| 2026-05-07 06:58 | 20.64444 | 111.94191 | 36005 ft | 469 kts | 296° |
| 2026-05-07 06:59 | 20.67288 | 111.87897 | 36002 ft | 471 kts | 296° |
| 2026-05-07 06:59 | 20.70108 | 111.81628 | 35998 ft | 472 kts | 296° |
| 2026-05-07 07:00 | 20.72947 | 111.75315 | 35996 ft | 471 kts | 295° |
| 2026-05-07 07:00 | 20.75779 | 111.69011 | 36001 ft | 470 kts | 295° |
| 2026-05-07 07:01 | 20.78605 | 111.62715 | 35997 ft | 469 kts | 295° |
| 2026-05-07 07:01 | 20.81424 | 111.56427 | 35998 ft | 469 kts | 295° |
| 2026-05-07 07:02 | 20.83140 | 111.49808 | 36005 ft | 467 kts | 272° |
| 2026-05-07 07:02 | 20.82146 | 111.42977 | 35996 ft | 469 kts | 252° |
| 2026-05-07 07:03 | 20.79851 | 111.36428 | 35997 ft | 472 kts | 251° |
| 2026-05-07 07:03 | 20.77557 | 111.29835 | 36001 ft | 474 kts | 252° |
| 2026-05-07 07:04 | 20.75308 | 111.23195 | 35998 ft | 476 kts | 252° |
| 2026-05-07 07:04 | 20.73072 | 111.16530 | 35996 ft | 477 kts | 252° |
| 2026-05-07 07:05 | 20.70830 | 111.09859 | 35986 ft | 477 kts | 252° |
| 2026-05-07 07:05 | 20.68587 | 111.03202 | 35987 ft | 476 kts | 252° |
| 2026-05-07 07:06 | 20.66344 | 110.96556 | 35986 ft | 475 kts | 252° |
| 2026-05-07 07:06 | 20.64103 | 110.89924 | 35987 ft | 474 kts | 252° |
| 2026-05-07 07:07 | 20.61879 | 110.83305 | 35987 ft | 473 kts | 252° |
| 2026-05-07 07:07 | 20.59662 | 110.76695 | 35985 ft | 473 kts | 252° |
| 2026-05-07 07:08 | 20.57444 | 110.70094 | 35986 ft | 473 kts | 252° |
| 2026-05-07 07:08 | 20.55236 | 110.63537 | 35986 ft | 473 kts | 252° |
| 2026-05-07 07:09 | 20.53012 | 110.56938 | 35978 ft | 473 kts | 252° |
| 2026-05-07 07:09 | 20.50443 | 110.50475 | 35986 ft | 475 kts | 243° |
| 2026-05-07 07:10 | 20.46835 | 110.44545 | 35977 ft | 479 kts | 233° |
| 2026-05-07 07:10 | 20.42604 | 110.39050 | 35980 ft | 480 kts | 232° |
| 2026-05-07 07:11 | 20.38355 | 110.33558 | 35973 ft | 481 kts | 233° |
| 2026-05-07 07:11 | 20.34134 | 110.28030 | 35975 ft | 481 kts | 233° |
| 2026-05-07 07:12 | 20.29915 | 110.22497 | 35969 ft | 481 kts | 233° |
| 2026-05-07 07:12 | 20.25731 | 110.16939 | 35957 ft | 481 kts | 233° |
| 2026-05-07 07:13 | 20.21565 | 110.11365 | 35963 ft | 481 kts | 233° |
| 2026-05-07 07:13 | 20.17395 | 110.05794 | 35962 ft | 481 kts | 233° |
| 2026-05-07 07:14 | 20.13216 | 110.00225 | 35961 ft | 482 kts | 233° |
| 2026-05-07 07:14 | 20.09032 | 109.94660 | 35955 ft | 482 kts | 233° |
| 2026-05-07 07:15 | 20.04843 | 109.89093 | 35955 ft | 482 kts | 233° |
| 2026-05-07 07:15 | 20.00652 | 109.83529 | 35955 ft | 482 kts | 233° |
| 2026-05-07 07:16 | 19.96459 | 109.77967 | 35942 ft | 482 kts | 233° |
| 2026-05-07 07:16 | 19.92265 | 109.72408 | 35952 ft | 482 kts | 233° |
| 2026-05-07 07:17 | 19.88126 | 109.66927 | 35953 ft | 482 kts | 233° |
| 2026-05-07 07:17 | 19.83925 | 109.61371 | 35952 ft | 482 kts | 233° |
| 2026-05-07 07:18 | 19.79725 | 109.55820 | 35951 ft | 482 kts | 233° |
| 2026-05-07 07:18 | 19.75522 | 109.50270 | 35948 ft | 482 kts | 233° |
| 2026-05-07 07:19 | 19.71318 | 109.44724 | 35944 ft | 482 kts | 233° |
| 2026-05-07 07:19 | 19.67114 | 109.39183 | 35954 ft | 482 kts | 233° |
| 2026-05-07 07:20 | 19.62938 | 109.33684 | 35950 ft | 482 kts | 233° |
| 2026-05-07 07:20 | 19.58734 | 109.28153 | 35949 ft | 482 kts | 233° |
| 2026-05-07 07:21 | 19.54530 | 109.22626 | 35950 ft | 482 kts | 233° |
| 2026-05-07 07:21 | 19.50315 | 109.17103 | 35954 ft | 482 kts | 233° |
| 2026-05-07 07:22 | 19.46064 | 109.11613 | 35953 ft | 482 kts | 232° |
| 2026-05-07 07:22 | 19.41811 | 109.06132 | 35948 ft | 482 kts | 232° |
| 2026-05-07 07:23 | 19.37562 | 109.00651 | 35955 ft | 481 kts | 232° |
| 2026-05-07 07:23 | 19.33317 | 108.95175 | 35957 ft | 481 kts | 232° |
| 2026-05-07 07:24 | 19.29070 | 108.89699 | 35956 ft | 481 kts | 232° |
| 2026-05-07 07:24 | 19.24824 | 108.84232 | 35960 ft | 481 kts | 232° |
| 2026-05-07 07:25 | 19.18468 | 108.76030 | 35958 ft | 481 kts | 232° |
| 2026-05-07 07:26 | 19.14228 | 108.70559 | 35955 ft | 481 kts | 232° |
| 2026-05-07 07:26 | 19.09986 | 108.65089 | 35956 ft | 481 kts | 232° |
| 2026-05-07 07:27 | 19.05745 | 108.59628 | 35949 ft | 481 kts | 232° |
| 2026-05-07 07:27 | 19.02221 | 108.55092 | 35951 ft | 480 kts | 232° |
| 2026-05-07 07:28 | 18.97290 | 108.48753 | 35952 ft | 480 kts | 232° |
| 2026-05-07 07:28 | 18.93044 | 108.43300 | 35955 ft | 480 kts | 232° |
| 2026-05-07 07:29 | 18.88800 | 108.37854 | 35950 ft | 480 kts | 232° |
| 2026-05-07 07:29 | 18.85242 | 108.33292 | 35947 ft | 480 kts | 232° |
| 2026-05-07 07:30 | 18.80992 | 108.27847 | 35949 ft | 480 kts | 232° |
| 2026-05-07 07:30 | 18.76772 | 108.22444 | 35949 ft | 481 kts | 232° |
| 2026-05-07 07:31 | 18.72486 | 108.16963 | 35947 ft | 481 kts | 232° |
| 2026-05-07 07:31 | 18.68258 | 108.11560 | 35943 ft | 481 kts | 232° |
| 2026-05-07 07:32 | 18.63969 | 108.06083 | 35946 ft | 481 kts | 232° |
| 2026-05-07 07:32 | 18.59733 | 108.00680 | 35946 ft | 481 kts | 232° |
| 2026-05-07 07:33 | 18.55467 | 107.95243 | 35941 ft | 481 kts | 232° |
| 2026-05-07 07:33 | 18.51197 | 107.89805 | 35949 ft | 482 kts | 232° |
| 2026-05-07 07:34 | 18.46920 | 107.84363 | 35944 ft | 482 kts | 232° |
| 2026-05-07 07:34 | 18.42638 | 107.78918 | 35945 ft | 483 kts | 232° |
| 2026-05-07 07:35 | 18.38354 | 107.73475 | 35943 ft | 483 kts | 232° |
| 2026-05-07 07:35 | 18.34106 | 107.68007 | 35946 ft | 482 kts | 235° |
| 2026-05-07 07:36 | 18.30431 | 107.62114 | 35858 ft | 482 kts | 240° |
| 2026-05-07 07:36 | 18.26881 | 107.56138 | 35829 ft | 481 kts | 239° |
| 2026-05-07 07:37 | 18.23307 | 107.50185 | 35844 ft | 481 kts | 239° |
| 2026-05-07 07:37 | 18.19711 | 107.44245 | 35847 ft | 481 kts | 239° |
| 2026-05-07 07:38 | 18.16110 | 107.38309 | 35841 ft | 482 kts | 239° |
| 2026-05-07 07:38 | 18.12506 | 107.32370 | 35826 ft | 482 kts | 239° |
| 2026-05-07 07:39 | 18.08901 | 107.26431 | 35830 ft | 482 kts | 239° |
| 2026-05-07 07:39 | 18.05291 | 107.20497 | 35840 ft | 482 kts | 239° |
| 2026-05-07 07:40 | 18.01666 | 107.14570 | 35836 ft | 482 kts | 239° |
| 2026-05-07 07:40 | 17.98040 | 107.08645 | 35833 ft | 482 kts | 239° |
| 2026-05-07 07:41 | 17.94415 | 107.02721 | 35832 ft | 482 kts | 239° |
| 2026-05-07 07:41 | 17.90788 | 106.96798 | 35812 ft | 482 kts | 239° |
| 2026-05-07 07:42 | 17.87164 | 106.90880 | 35832 ft | 482 kts | 239° |
| 2026-05-07 07:42 | 17.83561 | 106.84944 | 35836 ft | 482 kts | 239° |
| 2026-05-07 07:43 | 17.79962 | 106.79006 | 35833 ft | 482 kts | 239° |
| 2026-05-07 07:43 | 17.76359 | 106.73074 | 35825 ft | 482 kts | 239° |
| 2026-05-07 07:44 | 17.72752 | 106.67144 | 35837 ft | 482 kts | 239° |
| 2026-05-07 07:44 | 17.69170 | 106.61260 | 35841 ft | 482 kts | 239° |
| 2026-05-07 07:45 | 17.65557 | 106.55338 | 35840 ft | 482 kts | 238° |
| 2026-05-07 07:45 | 17.61935 | 106.49422 | 35839 ft | 482 kts | 238° |
| 2026-05-07 07:46 | 17.58311 | 106.43505 | 35847 ft | 483 kts | 238° |
| 2026-05-07 07:46 | 17.54684 | 106.37584 | 35851 ft | 483 kts | 238° |
| 2026-05-07 07:47 | 17.51055 | 106.31667 | 35858 ft | 483 kts | 238° |
| 2026-05-07 07:47 | 17.47424 | 106.25750 | 35866 ft | 483 kts | 238° |
| 2026-05-07 07:48 | 17.43792 | 106.19837 | 35868 ft | 483 kts | 238° |
| 2026-05-07 07:48 | 17.40159 | 106.13924 | 35847 ft | 483 kts | 238° |
| 2026-05-07 07:49 | 17.36522 | 106.08013 | 35866 ft | 483 kts | 238° |
| 2026-05-07 07:49 | 17.32909 | 106.02077 | 35867 ft | 484 kts | 239° |
| 2026-05-07 07:50 | 17.29308 | 105.96121 | 35868 ft | 484 kts | 239° |
| 2026-05-07 07:50 | 17.25699 | 105.90162 | 35859 ft | 485 kts | 239° |
| 2026-05-07 07:51 | 17.22085 | 105.84207 | 35849 ft | 485 kts | 239° |
| 2026-05-07 07:51 | 17.18465 | 105.78251 | 35838 ft | 485 kts | 239° |
| 2026-05-07 07:52 | 17.14845 | 105.72300 | 35838 ft | 485 kts | 239° |
| 2026-05-07 07:52 | 17.11227 | 105.66356 | 35833 ft | 485 kts | 239° |
| 2026-05-07 07:53 | 17.07605 | 105.60413 | 35827 ft | 484 kts | 239° |
| 2026-05-07 07:53 | 17.03986 | 105.54478 | 35830 ft | 484 kts | 239° |
| 2026-05-07 07:54 | 17.00387 | 105.48581 | 35829 ft | 484 kts | 239° |
| 2026-05-07 07:54 | 16.96762 | 105.42646 | 35832 ft | 485 kts | 239° |
| 2026-05-07 07:55 | 16.93134 | 105.36712 | 35828 ft | 485 kts | 239° |
| 2026-05-07 07:55 | 16.89508 | 105.30785 | 35830 ft | 485 kts | 239° |
| 2026-05-07 07:56 | 16.85877 | 105.24855 | 35830 ft | 485 kts | 239° |
| 2026-05-07 07:56 | 16.82238 | 105.18931 | 35833 ft | 485 kts | 239° |
| 2026-05-07 07:57 | 16.78595 | 105.13012 | 35833 ft | 485 kts | 239° |
| 2026-05-07 07:57 | 16.74953 | 105.07097 | 35839 ft | 485 kts | 239° |
| 2026-05-07 07:58 | 16.71306 | 105.01175 | 35834 ft | 485 kts | 239° |
| 2026-05-07 07:58 | 16.67655 | 104.95253 | 35846 ft | 485 kts | 239° |
| 2026-05-07 07:59 | 16.64003 | 104.89333 | 35851 ft | 485 kts | 238° |
| 2026-05-07 07:59 | 16.60351 | 104.83419 | 35857 ft | 485 kts | 238° |
| 2026-05-07 08:00 | 16.56675 | 104.77520 | 35856 ft | 485 kts | 236° |
| 2026-05-07 08:00 | 16.52370 | 104.72095 | 35862 ft | 486 kts | 229° |
| 2026-05-07 08:01 | 16.47814 | 104.66886 | 35862 ft | 486 kts | 229° |
| 2026-05-07 08:01 | 16.43284 | 104.61663 | 35850 ft | 486 kts | 229° |
| 2026-05-07 08:02 | 16.38809 | 104.56455 | 35840 ft | 485 kts | 230° |
| 2026-05-07 08:02 | 16.34310 | 104.51215 | 35836 ft | 485 kts | 229° |
| 2026-05-07 08:03 | 16.29811 | 104.45983 | 35831 ft | 485 kts | 229° |
| 2026-05-07 08:03 | 16.25304 | 104.40759 | 35826 ft | 485 kts | 229° |
| 2026-05-07 08:04 | 16.20762 | 104.35572 | 35818 ft | 485 kts | 229° |
| 2026-05-07 08:04 | 16.16208 | 104.30384 | 35817 ft | 485 kts | 229° |
| 2026-05-07 08:05 | 16.11662 | 104.25194 | 35819 ft | 486 kts | 229° |
| 2026-05-07 08:05 | 16.07108 | 104.19994 | 35801 ft | 486 kts | 229° |
| 2026-05-07 08:06 | 16.02568 | 104.14773 | 35810 ft | 486 kts | 229° |
| 2026-05-07 08:06 | 15.98073 | 104.09520 | 35805 ft | 487 kts | 230° |
| 2026-05-07 08:07 | 15.93571 | 104.04256 | 35802 ft | 487 kts | 230° |
| 2026-05-07 08:07 | 15.89065 | 103.99002 | 35798 ft | 487 kts | 230° |
| 2026-05-07 08:08 | 15.84554 | 103.93753 | 35801 ft | 487 kts | 229° |
| 2026-05-07 08:08 | 15.80038 | 103.88502 | 35803 ft | 487 kts | 229° |
| 2026-05-07 08:09 | 15.75554 | 103.83292 | 35802 ft | 487 kts | 229° |
| 2026-05-07 08:09 | 15.71033 | 103.78043 | 35804 ft | 488 kts | 229° |
| 2026-05-07 08:10 | 15.66506 | 103.72791 | 35807 ft | 488 kts | 229° |
| 2026-05-07 08:10 | 15.61979 | 103.67543 | 35811 ft | 488 kts | 229° |
| 2026-05-07 08:11 | 15.57449 | 103.62294 | 35812 ft | 488 kts | 229° |
| 2026-05-07 08:11 | 15.52917 | 103.57047 | 35815 ft | 488 kts | 229° |
| 2026-05-07 08:12 | 15.48390 | 103.51809 | 35809 ft | 487 kts | 229° |
| 2026-05-07 08:12 | 15.43872 | 103.46587 | 35808 ft | 486 kts | 229° |
| 2026-05-07 08:13 | 15.39361 | 103.41374 | 35809 ft | 486 kts | 229° |
| 2026-05-07 08:13 | 15.34847 | 103.36163 | 35807 ft | 485 kts | 229° |
| 2026-05-07 08:14 | 15.30338 | 103.30961 | 35800 ft | 485 kts | 229° |
| 2026-05-07 08:14 | 15.25828 | 103.25761 | 35805 ft | 486 kts | 229° |
| 2026-05-07 08:15 | 15.21331 | 103.20536 | 35795 ft | 485 kts | 232° |
| 2026-05-07 08:15 | 15.17630 | 103.14738 | 35806 ft | 483 kts | 244° |
| 2026-05-07 08:16 | 15.14759 | 103.08462 | 35821 ft | 482 kts | 246° |
| 2026-05-07 08:16 | 15.11914 | 103.02173 | 35808 ft | 483 kts | 245° |
| 2026-05-07 08:17 | 15.09041 | 102.95896 | 35817 ft | 482 kts | 245° |
| 2026-05-07 08:17 | 15.06638 | 102.90686 | 35805 ft | 483 kts | 245° |
| 2026-05-07 08:18 | 15.03740 | 102.84419 | 35813 ft | 483 kts | 245° |
| 2026-05-07 08:18 | 15.00842 | 102.78155 | 35810 ft | 483 kts | 245° |
| 2026-05-07 08:19 | 14.97945 | 102.71895 | 35806 ft | 482 kts | 245° |
| 2026-05-07 08:19 | 14.95047 | 102.65640 | 35805 ft | 482 kts | 245° |
| 2026-05-07 08:20 | 14.92148 | 102.59388 | 35806 ft | 482 kts | 245° |
| 2026-05-07 08:20 | 14.89252 | 102.53146 | 35804 ft | 482 kts | 245° |
| 2026-05-07 08:21 | 14.86347 | 102.46890 | 35806 ft | 482 kts | 245° |
| 2026-05-07 08:21 | 14.83439 | 102.40634 | 35492 ft | 485 kts | 245° |
| 2026-05-07 08:21 | 14.81980 | 102.37494 | 35120 ft | 485 kts | 245° |
| 2026-05-07 08:22 | 14.80520 | 102.34357 | 34784 ft | 483 kts | 245° |
| 2026-05-07 08:22 | 14.79060 | 102.31226 | 34457 ft | 483 kts | 245° |
| 2026-05-07 08:22 | 14.77603 | 102.28101 | 34127 ft | 483 kts | 245° |
| 2026-05-07 08:22 | 14.76145 | 102.24973 | 33802 ft | 483 kts | 245° |
| 2026-05-07 08:23 | 14.74689 | 102.21845 | 33416 ft | 483 kts | 245° |
| 2026-05-07 08:23 | 14.73232 | 102.18718 | 33056 ft | 484 kts | 245° |
| 2026-05-07 08:23 | 14.71784 | 102.15613 | 32704 ft | 489 kts | 245° |
| 2026-05-07 08:23 | 14.70299 | 102.12427 | 32350 ft | 495 kts | 245° |
| 2026-05-07 08:24 | 14.68802 | 102.09220 | 31997 ft | 498 kts | 244° |
| 2026-05-07 08:24 | 14.67296 | 102.05997 | 31632 ft | 498 kts | 244° |
| 2026-05-07 08:24 | 14.65793 | 102.02780 | 31287 ft | 497 kts | 245° |
| 2026-05-07 08:24 | 14.64291 | 101.99568 | 30946 ft | 497 kts | 245° |
| 2026-05-07 08:25 | 14.62790 | 101.96358 | 30609 ft | 496 kts | 244° |
| 2026-05-07 08:25 | 14.61293 | 101.93160 | 30277 ft | 493 kts | 244° |
| 2026-05-07 08:25 | 14.59806 | 101.89982 | 29732 ft | 489 kts | 244° |
| 2026-05-07 08:25 | 14.58334 | 101.86837 | 29130 ft | 484 kts | 244° |
| 2026-05-07 08:26 | 14.55437 | 101.80656 | 28028 ft | 473 kts | 244° |
| 2026-05-07 08:26 | 14.54008 | 101.77607 | 27431 ft | 470 kts | 244° |
| 2026-05-07 08:26 | 14.52587 | 101.74579 | 26764 ft | 469 kts | 244° |
| 2026-05-07 08:27 | 14.51170 | 101.71558 | 26118 ft | 467 kts | 244° |
| 2026-05-07 08:27 | 14.49754 | 101.68543 | 25472 ft | 466 kts | 244° |
| 2026-05-07 08:27 | 14.48343 | 101.65538 | 24849 ft | 465 kts | 244° |
| 2026-05-07 08:27 | 14.46938 | 101.62545 | 24238 ft | 463 kts | 244° |
| 2026-05-07 08:28 | 14.45533 | 101.59556 | 23647 ft | 462 kts | 243° |
| 2026-05-07 08:28 | 14.44134 | 101.56580 | 22965 ft | 461 kts | 243° |
| 2026-05-07 08:28 | 14.42745 | 101.53628 | 22226 ft | 460 kts | 243° |
| 2026-05-07 08:28 | 14.41351 | 101.50665 | 21473 ft | 459 kts | 243° |
| 2026-05-07 08:29 | 14.39955 | 101.47699 | 20740 ft | 459 kts | 243° |
| 2026-05-07 08:29 | 14.38564 | 101.44745 | 20013 ft | 458 kts | 243° |
| 2026-05-07 08:29 | 14.37175 | 101.41795 | 19306 ft | 456 kts | 243° |
| 2026-05-07 08:29 | 14.35814 | 101.38905 | 18596 ft | 434 kts | 243° |
| 2026-05-07 08:30 | 14.34538 | 101.36196 | 17985 ft | 407 kts | 243° |
| 2026-05-07 08:30 | 14.33313 | 101.33598 | 17409 ft | 401 kts | 243° |
| 2026-05-07 08:30 | 14.32104 | 101.31036 | 17087 ft | 394 kts | 243° |
| 2026-05-07 08:30 | 14.30808 | 101.28607 | 16743 ft | 382 kts | 232° |
| 2026-05-07 08:31 | 14.28951 | 101.26727 | 16376 ft | 371 kts | 217° |
| 2026-05-07 08:31 | 14.26926 | 101.25081 | 15912 ft | 370 kts | 217° |
| 2026-05-07 08:31 | 14.24922 | 101.23425 | 15515 ft | 368 kts | 218° |
| 2026-05-07 08:31 | 14.22943 | 101.21769 | 15121 ft | 365 kts | 218° |
| 2026-05-07 08:32 | 14.20989 | 101.20120 | 14731 ft | 362 kts | 218° |
| 2026-05-07 08:32 | 14.19109 | 101.18418 | 14285 ft | 359 kts | 227° |
| 2026-05-07 08:32 | 14.17710 | 101.16327 | 13794 ft | 361 kts | 244° |
| 2026-05-07 08:32 | 14.16950 | 101.13839 | 13376 ft | 360 kts | 261° |
| 2026-05-07 08:33 | 14.16722 | 101.11318 | 13012 ft | 356 kts | 267° |
| 2026-05-07 08:33 | 14.16637 | 101.08779 | 12616 ft | 353 kts | 269° |
| 2026-05-07 08:33 | 14.16585 | 101.06291 | 12054 ft | 340 kts | 269° |
| 2026-05-07 08:33 | 14.16538 | 101.03915 | 11563 ft | 323 kts | 269° |
| 2026-05-07 08:34 | 14.16494 | 101.01623 | 11052 ft | 309 kts | 269° |
| 2026-05-07 08:34 | 14.16452 | 100.99438 | 10569 ft | 303 kts | 269° |
| 2026-05-07 08:34 | 14.16407 | 100.97246 | 10142 ft | 311 kts | 269° |
| 2026-05-07 08:34 | 14.16361 | 100.95072 | 9703 ft | 304 kts | 269° |
| 2026-05-07 08:35 | 14.16278 | 100.92913 | 9114 ft | 299 kts | 262° |
| 2026-05-07 08:35 | 14.15594 | 100.90915 | 8433 ft | 297 kts | 235° |
| 2026-05-07 08:35 | 14.14201 | 100.89415 | 8012 ft | 284 kts | 213° |
| 2026-05-07 08:35 | 14.12543 | 100.88391 | 7697 ft | 274 kts | 208° |
| 2026-05-07 08:36 | 14.10889 | 100.87427 | 7402 ft | 272 kts | 208° |
| 2026-05-07 08:36 | 14.09274 | 100.86483 | 7030 ft | 262 kts | 208° |
| 2026-05-07 08:36 | 14.07721 | 100.85565 | 6731 ft | 255 kts | 208° |
| 2026-05-07 08:36 | 14.06195 | 100.84658 | 6468 ft | 252 kts | 208° |
| 2026-05-07 08:37 | 14.04704 | 100.83767 | 6364 ft | 244 kts | 208° |
| 2026-05-07 08:37 | 14.03242 | 100.82895 | 6238 ft | 244 kts | 208° |
| 2026-05-07 08:37 | 14.01722 | 100.82097 | 6002 ft | 246 kts | 196° |
| 2026-05-07 08:37 | 14.00081 | 100.81650 | 5741 ft | 243 kts | 191° |
| 2026-05-07 08:38 | 13.98431 | 100.81262 | 5429 ft | 244 kts | 192° |
| 2026-05-07 08:38 | 13.96797 | 100.80857 | 5131 ft | 244 kts | 192° |
| 2026-05-07 08:38 | 13.95149 | 100.80434 | 4826 ft | 243 kts | 193° |
| 2026-05-07 08:38 | 13.93510 | 100.80012 | 4542 ft | 242 kts | 193° |
| 2026-05-07 08:39 | 13.91880 | 100.79589 | 4243 ft | 241 kts | 194° |
| 2026-05-07 08:39 | 13.90254 | 100.79163 | 3932 ft | 240 kts | 193° |
| 2026-05-07 08:39 | 13.88690 | 100.78753 | 3677 ft | 223 kts | 194° |
| 2026-05-07 08:39 | 13.87230 | 100.78369 | 3375 ft | 211 kts | 194° |
| 2026-05-07 08:40 | 13.85853 | 100.78008 | 3099 ft | 197 kts | 194° |
| 2026-05-07 08:40 | 13.84540 | 100.77664 | 2878 ft | 194 kts | 194° |
| 2026-05-07 08:40 | 13.83233 | 100.77322 | 2647 ft | 193 kts | 194° |
| 2026-05-07 08:40 | 13.81931 | 100.76980 | 2403 ft | 193 kts | 194° |
| 2026-05-07 08:41 | 13.80657 | 100.76645 | 2188 ft | 183 kts | 193° |
| 2026-05-07 08:41 | 13.79453 | 100.76329 | 1906 ft | 173 kts | 194° |
| 2026-05-07 08:41 | 13.78325 | 100.76032 | 1653 ft | 162 kts | 195° |
| 2026-05-07 08:41 | 13.77237 | 100.75743 | 1464 ft | 163 kts | 195° |
| 2026-05-07 08:42 | 13.76167 | 100.75458 | 1252 ft | 154 kts | 194° |
| 2026-05-07 08:42 | 13.75142 | 100.75187 | 1049 ft | 147 kts | 194° |
| 2026-05-07 08:42 | 13.74126 | 100.74919 | 873 ft | 152 kts | 195° |
| 2026-05-07 08:42 | 13.73109 | 100.74648 | 656 ft | 154 kts | 195° |
| 2026-05-07 08:43 | 13.72057 | 100.74370 | 478 ft | 160 kts | 194° |
| 2026-05-07 08:43 | 13.70950 | 100.74078 | 278 ft | 162 kts | 193° |
| 2026-05-07 08:43 | 13.69882 | 100.73811 | 38 ft | 153 kts | 193° |
| 2026-05-07 08:43 | 13.68939 | 100.73562 | 18 ft | 118 kts | 194° |
| 2026-05-07 08:44 | 13.68360 | 100.73410 | 16 ft | 58 kts | 193° |
| 2026-05-07 08:44 | 13.68015 | 100.73347 | 21 ft | 37 kts | 174° |
| 2026-05-07 08:44 | 13.67849 | 100.73385 | 19 ft | 15 kts | 163° |
| 2026-05-07 08:44 | 13.67752 | 100.73413 | 19 ft | 15 kts | 169° |
| 2026-05-07 08:45 | 13.67660 | 100.73413 | 20 ft | 11 kts | 188° |
| 2026-05-07 08:45 | 13.67602 | 100.73437 | 19 ft | 10 kts | 120° |
| 2026-05-07 08:45 | 13.67579 | 100.73508 | 19 ft | 11 kts | 106° |
| 2026-05-07 08:45 | 13.67556 | 100.73590 | 18 ft | 14 kts | 105° |
| 2026-05-07 08:46 | 13.67530 | 100.73694 | 18 ft | 15 kts | 104° |
| 2026-05-07 08:46 | 13.67560 | 100.73770 | 18 ft | 13 kts | 27° |
| 2026-05-07 08:46 | 13.67647 | 100.73796 | 18 ft | 13 kts | 13° |
| 2026-05-07 08:46 | 13.67736 | 100.73817 | 18 ft | 13 kts | 13° |
| 2026-05-07 08:47 | 13.67824 | 100.73840 | 17 ft | 13 kts | 14° |
| 2026-05-07 08:47 | 13.67911 | 100.73863 | 17 ft | 13 kts | 14° |
| 2026-05-07 08:47 | 13.67999 | 100.73887 | 18 ft | 13 kts | 14° |
| 2026-05-07 08:47 | 13.68087 | 100.73910 | 18 ft | 13 kts | 14° |
| 2026-05-07 08:48 | 13.68175 | 100.73933 | 18 ft | 13 kts | 14° |
| 2026-05-07 08:48 | 13.68266 | 100.73958 | 18 ft | 16 kts | 14° |
| 2026-05-07 08:48 | 13.68390 | 100.73990 | 18 ft | 20 kts | 14° |
| 2026-05-07 08:48 | 13.68524 | 100.74025 | 19 ft | 20 kts | 14° |
| 2026-05-07 08:49 | 13.68657 | 100.74060 | 19 ft | 20 kts | 14° |
| 2026-05-07 08:49 | 13.68791 | 100.74095 | 19 ft | 20 kts | 14° |
| 2026-05-07 08:49 | 13.68924 | 100.74130 | 19 ft | 20 kts | 14° |
| 2026-05-07 08:49 | 13.69058 | 100.74165 | 18 ft | 20 kts | 14° |
| 2026-05-07 08:50 | 13.69191 | 100.74201 | 18 ft | 20 kts | 14° |
| 2026-05-07 08:50 | 13.69325 | 100.74236 | 18 ft | 20 kts | 14° |
| 2026-05-07 08:50 | 13.69453 | 100.74270 | 17 ft | 13 kts | 15° |
| 2026-05-07 08:50 | 13.69489 | 100.74343 | 18 ft | 13 kts | 98° |
| 2026-05-07 08:51 | 13.69464 | 100.74434 | 18 ft | 13 kts | 105° |
| 2026-05-07 08:51 | 13.69444 | 100.74526 | 18 ft | 13 kts | 90° |
| 2026-05-07 08:51 | 13.69506 | 100.74584 | 18 ft | 13 kts | 16° |
| 2026-05-07 08:51 | 13.69577 | 100.74604 | 18 ft | 5 kts | 22° |
| 2026-05-07 08:52 | 13.69587 | 100.74643 | 18 ft | 6 kts | 94° |
| 2026-05-07 08:52 | 13.69579 | 100.74677 | 18 ft | 3 kts | 105° |
| 2026-05-07 08:52 | 13.69576 | 100.74688 | 18 ft | 1 kts | 104° |
| 2026-05-07 08:52 | 13.69575 | 100.74693 | 18 ft | 0 kts | 104° |